createdAt,value
2023-03-29T00:02:13.268Z,66.39
2023-03-29T00:04:40.784Z,66.37
2023-03-29T00:07:08.279Z,66.52
2023-03-29T00:09:35.267Z,66.52
2023-03-29T00:12:03.266Z,66.46
2023-03-29T00:14:30.961Z,66.38
2023-03-29T00:16:58.682Z,66.45
2023-03-29T00:19:25.975Z,66.46
2023-03-29T00:21:53.057Z,66.38
2023-03-29T00:24:20.750Z,66.35
2023-03-29T00:26:48.134Z,66.72
2023-03-29T00:29:15.511Z,66.80
2023-03-29T00:31:45.398Z,67.14
2023-03-29T00:34:12.445Z,67.33
2023-03-29T00:36:39.822Z,67.59
2023-03-29T00:39:07.729Z,67.38
2023-03-29T00:41:35.388Z,67.08
2023-03-29T00:44:04.351Z,67.22
2023-03-29T00:46:34.248Z,67.33
2023-03-29T00:49:08.201Z,67.42
2023-03-29T00:51:37.959Z,67.71
2023-03-29T00:54:14.079Z,67.77
2023-03-29T00:56:43.862Z,67.54
2023-03-29T00:59:22.284Z,67.44
2023-03-29T01:02:02.913Z,67.50
2023-03-29T01:04:59.848Z,67.66
2023-03-29T01:07:57.550Z,68.13
2023-03-29T01:10:40.079Z,68.29
2023-03-29T01:13:38.885Z,68.51
2023-03-29T01:16:10.057Z,69.06
2023-03-29T01:18:38.070Z,69.31
2023-03-29T01:21:43.639Z,69.44
2023-03-29T01:24:10.600Z,69.63
2023-03-29T01:26:51.462Z,70.20
2023-03-29T01:29:41.514Z,70.22
2023-03-29T01:32:13.407Z,70.45
2023-03-29T01:34:48.386Z,70.61
2023-03-29T01:37:28.341Z,70.29
2023-03-29T01:39:55.186Z,69.91
2023-03-29T01:42:39.736Z,70.13
2023-03-29T01:45:21.349Z,70.49
2023-03-29T01:48:00.536Z,70.60
2023-03-29T01:50:40.050Z,70.23
2023-03-29T01:53:24.158Z,69.73
2023-03-29T01:56:05.116Z,69.09
2023-03-29T01:58:36.144Z,68.33
2023-03-29T02:01:09.253Z,67.64
2023-03-29T02:03:41.715Z,67.33
2023-03-29T02:06:12.554Z,66.93
2023-03-29T02:08:41.126Z,66.33
2023-03-29T02:11:08.655Z,65.95
2023-03-29T02:13:36.261Z,65.94
2023-03-29T02:16:08.909Z,66.31
2023-03-29T02:18:35.760Z,66.48
2023-03-29T02:21:03.065Z,66.46
2023-03-29T02:23:34.814Z,66.16
2023-03-29T02:26:03.322Z,65.80
2023-03-29T02:28:31.216Z,65.85
2023-03-29T02:31:47.341Z,65.93
2023-03-29T02:34:26.195Z,65.88
2023-03-29T02:36:58.288Z,65.78
2023-03-29T02:39:28.985Z,65.74
2023-03-29T02:41:56.622Z,65.72
2023-03-29T02:44:27.262Z,65.41
2023-03-29T02:46:58.574Z,65.29
2023-03-29T02:49:25.601Z,65.57
2023-03-29T02:51:55.485Z,65.65
2023-03-29T02:54:25.981Z,65.62
2023-03-29T02:56:59.322Z,65.72
2023-03-29T02:59:26.768Z,65.59
2023-03-29T03:01:53.957Z,65.09
2023-03-29T03:04:21.669Z,65.16
2023-03-29T03:06:49.058Z,65.01
2023-03-29T03:09:16.585Z,65.00
2023-03-29T03:11:45.256Z,65.33
2023-03-29T03:14:12.344Z,65.21
2023-03-29T03:16:39.444Z,64.82
2023-03-29T03:19:06.884Z,64.64
2023-03-29T03:21:34.542Z,64.81
2023-03-29T03:24:01.421Z,65.07
2023-03-29T03:26:29.387Z,65.03
2023-03-29T03:28:56.891Z,64.94
2023-03-29T03:31:54.168Z,64.95
2023-03-29T03:34:40.152Z,65.46
2023-03-29T03:37:07.250Z,65.45
2023-03-29T03:39:34.830Z,65.30
2023-03-29T03:42:05.858Z,65.63
2023-03-29T03:44:38.893Z,65.81
2023-03-29T03:47:16.338Z,65.33
2023-03-29T03:49:43.385Z,65.02
2023-03-29T03:52:11.322Z,64.90
2023-03-29T03:54:38.486Z,65.07
2023-03-29T03:57:32.571Z,64.52
2023-03-29T03:59:59.619Z,64.58
2023-03-29T04:02:39.902Z,64.78
2023-03-29T04:05:08.244Z,64.93
2023-03-29T04:07:38.163Z,65.30
2023-03-29T04:10:20.911Z,65.53
2023-03-29T04:12:56.205Z,65.47
2023-03-29T04:15:23.474Z,65.42
2023-03-29T04:18:00.097Z,65.45
2023-03-29T04:20:34.079Z,65.35
2023-03-29T04:23:01.315Z,65.47
2023-03-29T04:25:28.961Z,65.61
2023-03-29T04:28:15.917Z,65.79
2023-03-29T04:30:53.795Z,65.89
2023-03-29T04:33:40.773Z,65.79
2023-03-29T04:36:08.914Z,65.76
2023-03-29T04:38:37.370Z,65.71
2023-03-29T04:41:04.801Z,65.51
2023-03-29T04:44:06.288Z,65.35
2023-03-29T04:46:34.268Z,65.18
2023-03-29T04:49:05.524Z,64.76
2023-03-29T04:51:38.956Z,64.48
2023-03-29T04:54:06.183Z,64.28
2023-03-29T04:56:43.479Z,64.08
2023-03-29T04:59:39.598Z,63.89
2023-03-29T05:02:25.066Z,63.68
2023-03-29T05:04:52.450Z,63.25
2023-03-29T05:07:19.401Z,63.12
2023-03-29T05:09:47.009Z,63.09
2023-03-29T05:12:14.132Z,62.72
2023-03-29T05:14:54.016Z,62.34
2023-03-29T05:17:31.244Z,62.04
2023-03-29T05:20:09.209Z,61.92
2023-03-29T05:22:37.708Z,61.50
2023-03-29T05:25:08.310Z,61.09
2023-03-29T05:27:45.161Z,60.69
2023-03-29T05:30:14.711Z,60.29
2023-03-29T05:32:50.421Z,59.75
2023-03-29T05:35:29.524Z,59.51
2023-03-29T05:37:57.631Z,59.17
2023-03-29T05:40:25.679Z,59.24
2023-03-29T05:43:14.780Z,59.08
2023-03-29T05:45:41.817Z,58.99
2023-03-29T05:48:10.172Z,58.66
2023-03-29T05:50:39.465Z,58.56
2023-03-29T05:53:07.573Z,58.09
2023-03-29T05:55:34.685Z,58.03
2023-03-29T05:58:01.690Z,58.17
2023-03-29T06:00:33.859Z,57.53
2023-03-29T06:03:21.528Z,56.19
2023-03-29T06:06:04.548Z,55.60
2023-03-29T06:08:34.605Z,55.80
2023-03-29T06:11:23.880Z,55.90
2023-03-29T06:14:13.046Z,56.10
2023-03-29T06:16:44.467Z,56.38
2023-03-29T06:19:12.282Z,56.71
2023-03-29T06:21:40.617Z,55.56
2023-03-29T06:24:09.584Z,54.76
2023-03-29T06:26:42.884Z,53.88
2023-03-29T06:29:12.399Z,53.13
2023-03-29T06:31:40.297Z,53.02
2023-03-29T06:34:08.337Z,52.37
2023-03-29T06:36:55.899Z,53.13
2023-03-29T06:39:24.970Z,53.25
2023-03-29T06:42:20.779Z,52.78
2023-03-29T06:45:08.252Z,52.62
2023-03-29T06:47:36.591Z,52.67
2023-03-29T06:50:03.881Z,52.49
2023-03-29T06:52:45.819Z,51.87
2023-03-29T06:55:13.760Z,52.53
2023-03-29T06:57:49.720Z,52.74
2023-03-29T07:00:37.169Z,51.28
2023-03-29T07:03:29.480Z,50.54
2023-03-29T07:06:10.899Z,50.44
2023-03-29T07:08:46.276Z,49.91
2023-03-29T07:11:30.921Z,49.84
2023-03-29T07:14:05.293Z,49.18
2023-03-29T07:16:32.917Z,48.91
2023-03-29T07:19:25.558Z,49.46
2023-03-29T07:22:17.162Z,49.64
2023-03-29T07:24:55.277Z,50.05
2023-03-29T07:27:27.785Z,50.16
2023-03-29T07:29:58.781Z,49.32
2023-03-29T07:32:29.850Z,49.29
2023-03-29T07:35:13.214Z,50.02
2023-03-29T07:37:45.779Z,49.86
2023-03-29T07:40:27.324Z,48.41
2023-03-29T07:43:00.476Z,47.50
2023-03-29T07:45:42.484Z,46.83
2023-03-29T07:48:16.218Z,45.44
2023-03-29T07:51:17.800Z,45.16
2023-03-29T07:53:51.809Z,43.89
2023-03-29T07:56:36.231Z,43.91
2023-03-29T07:59:14.736Z,44.02
2023-03-29T08:01:46.197Z,43.79
2023-03-29T08:04:26.923Z,43.85
2023-03-29T08:07:20.518Z,43.87
2023-03-29T08:10:18.948Z,43.87
2023-03-29T08:13:13.542Z,43.67
2023-03-29T08:15:51.843Z,43.75
2023-03-29T08:18:28.536Z,43.88
2023-03-29T08:20:58.245Z,43.88
2023-03-29T08:23:36.403Z,43.78
2023-03-29T08:26:25.497Z,43.68
2023-03-29T08:28:54.890Z,43.24
2023-03-29T08:31:24.173Z,43.36
2023-03-29T08:33:53.521Z,42.06
2023-03-29T08:36:59.826Z,42.80
2023-03-29T08:39:47.215Z,42.41
2023-03-29T08:43:02.062Z,42.28
2023-03-29T08:46:18.087Z,41.96
2023-03-29T08:49:02.867Z,42.51
2023-03-29T08:52:07.069Z,42.08
2023-03-29T08:54:44.483Z,41.64
2023-03-29T08:57:43.535Z,41.84
2023-03-29T09:00:39.548Z,41.91
2023-03-29T09:03:21.002Z,42.31
2023-03-29T09:06:12.805Z,40.21
2023-03-29T09:08:48.042Z,39.66
2023-03-29T09:11:54.409Z,39.00
2023-03-29T09:15:02.130Z,38.80
2023-03-29T09:18:03.575Z,38.78
2023-03-29T09:21:17.209Z,37.64
2023-03-29T09:24:16.514Z,37.07
2023-03-29T09:27:05.266Z,37.24
2023-03-29T09:30:00.073Z,37.31
2023-03-29T09:32:58.381Z,37.17
2023-03-29T09:36:02.550Z,36.64
2023-03-29T09:38:31.595Z,36.29
2023-03-29T09:41:07.265Z,35.77
2023-03-29T09:43:40.839Z,35.44
2023-03-29T09:46:19.485Z,35.89
2023-03-29T09:48:49.334Z,36.07
2023-03-29T09:51:20.328Z,35.18
2023-03-29T09:53:48.976Z,34.71
2023-03-29T09:56:34.622Z,34.79
2023-03-29T09:59:12.151Z,33.57
2023-03-29T10:01:44.616Z,32.99
2023-03-29T10:04:13.311Z,33.24
2023-03-29T10:06:53.172Z,33.25
2023-03-29T10:09:24.137Z,32.66
2023-03-29T10:11:58.024Z,31.79
2023-03-29T10:14:42.777Z,31.92
2023-03-29T10:17:14.101Z,31.31
2023-03-29T10:19:57.714Z,30.52
2023-03-29T10:22:41.886Z,30.84
2023-03-29T10:25:13.196Z,31.51
2023-03-29T10:27:43.168Z,31.14
2023-03-29T10:30:18.238Z,30.54
2023-03-29T10:32:45.824Z,29.92
2023-03-29T10:35:25.575Z,29.64
2023-03-29T10:37:55.751Z,30.64
2023-03-29T10:40:32.698Z,30.44
2023-03-29T10:43:24.048Z,30.30
2023-03-29T10:45:57.856Z,30.41
2023-03-29T10:48:29.851Z,30.43
2023-03-29T10:51:01.678Z,31.18
2023-03-29T10:53:33.676Z,31.42
2023-03-29T10:56:13.758Z,31.82
2023-03-29T10:59:02.920Z,31.36
2023-03-29T11:01:52.714Z,31.56
2023-03-29T11:04:51.825Z,31.37
2023-03-29T11:07:47.964Z,31.70
2023-03-29T11:10:49.204Z,31.33
2023-03-29T11:13:37.496Z,29.88
2023-03-29T11:16:23.057Z,29.53
2023-03-29T11:19:37.891Z,29.23
2023-03-29T11:22:26.216Z,29.55
2023-03-29T11:24:55.894Z,29.58
2023-03-29T11:27:44.263Z,28.57
2023-03-29T11:30:56.480Z,27.40
2023-03-29T11:33:23.710Z,27.95
2023-03-29T11:36:09.733Z,27.49
2023-03-29T11:38:51.813Z,26.52
2023-03-29T11:41:20.223Z,26.45
2023-03-29T11:43:55.732Z,25.87
2023-03-29T11:46:28.255Z,26.47
2023-03-29T11:49:04.191Z,26.43
2023-03-29T11:52:13.650Z,25.93
2023-03-29T11:55:06.585Z,26.27
2023-03-29T11:57:52.110Z,26.03
2023-03-29T12:00:31.807Z,25.54
2023-03-29T12:03:12.468Z,26.17
2023-03-29T12:05:47.736Z,26.04
2023-03-29T12:08:29.106Z,25.97
2023-03-29T12:10:59.455Z,25.92
2023-03-29T12:14:04.952Z,26.62
2023-03-29T12:16:44.267Z,26.48
2023-03-29T12:19:35.359Z,26.94
2023-03-29T12:22:07.285Z,26.92
2023-03-29T12:24:40.669Z,26.63
2023-03-29T12:27:31.355Z,26.56
2023-03-29T12:30:21.092Z,26.75
2023-03-29T12:33:17.874Z,26.78
2023-03-29T12:36:09.176Z,26.34
2023-03-29T12:39:02.116Z,26.13
2023-03-29T12:41:51.310Z,26.04
2023-03-29T12:44:44.924Z,25.69
2023-03-29T12:47:24.092Z,25.19
2023-03-29T12:49:56.029Z,25.05
2023-03-29T12:52:41.283Z,24.75
2023-03-29T12:55:40.000Z,24.76
2023-03-29T12:58:21.029Z,25.40
2023-03-29T13:01:14.066Z,26.07
2023-03-29T13:03:48.915Z,25.92
2023-03-29T13:06:51.028Z,26.09
2023-03-29T13:09:21.567Z,25.61
2023-03-29T13:11:53.190Z,25.10
2023-03-29T13:14:24.012Z,25.20
2023-03-29T13:16:51.604Z,25.07
2023-03-29T13:19:32.892Z,25.02
2023-03-29T13:22:25.601Z,25.36
2023-03-29T13:25:05.555Z,24.88
2023-03-29T13:27:39.118Z,24.54
2023-03-29T13:30:20.319Z,24.39
2023-03-29T13:32:55.464Z,24.32
2023-03-29T13:35:41.477Z,24.44
2023-03-29T13:38:27.946Z,25.28
2023-03-29T13:41:01.728Z,25.21
2023-03-29T13:43:30.830Z,25.16
2023-03-29T13:45:57.799Z,24.93
2023-03-29T13:48:26.614Z,25.23
2023-03-29T13:50:57.037Z,25.12
2023-03-29T13:53:31.065Z,24.98
2023-03-29T13:55:59.047Z,25.64
2023-03-29T13:58:42.833Z,26.01
2023-03-29T14:01:28.595Z,26.34
2023-03-29T14:03:57.010Z,26.49
2023-03-29T14:06:31.104Z,25.72
2023-03-29T14:09:03.065Z,25.31
2023-03-29T14:11:30.633Z,25.72
2023-03-29T14:14:00.157Z,26.08
2023-03-29T14:16:31.126Z,26.09
2023-03-29T14:19:14.149Z,25.72
2023-03-29T14:21:43.530Z,25.44
2023-03-29T14:24:16.770Z,26.03
2023-03-29T14:26:46.653Z,26.21
2023-03-29T14:29:14.163Z,26.26
2023-03-29T14:31:42.112Z,26.36
2023-03-29T14:34:17.999Z,26.19
2023-03-29T14:36:48.344Z,26.32
2023-03-29T14:39:19.828Z,26.51
2023-03-29T14:41:52.404Z,26.78
2023-03-29T14:44:26.863Z,26.87
2023-03-29T14:46:55.410Z,27.03
2023-03-29T14:49:24.068Z,27.32
2023-03-29T14:51:52.634Z,27.33
2023-03-29T14:54:24.996Z,27.42
2023-03-29T14:56:53.283Z,26.96
2023-03-29T14:59:25.312Z,27.69
2023-03-29T15:01:52.935Z,28.15
2023-03-29T15:04:20.624Z,28.11
2023-03-29T15:06:50.145Z,27.95
2023-03-29T15:09:27.738Z,28.31
2023-03-29T15:11:57.279Z,28.94
2023-03-29T15:14:27.968Z,29.34
2023-03-29T15:17:04.437Z,29.47
2023-03-29T15:19:32.293Z,30.15
2023-03-29T15:22:10.589Z,30.86
2023-03-29T15:24:44.324Z,31.41
2023-03-29T15:27:19.391Z,31.93
2023-03-29T15:29:48.494Z,32.09
2023-03-29T15:32:24.241Z,32.52
2023-03-29T15:35:15.892Z,32.70
2023-03-29T15:37:43.108Z,32.90
2023-03-29T15:40:16.356Z,33.02
2023-03-29T15:42:43.630Z,33.03
2023-03-29T15:45:16.208Z,32.88
2023-03-29T15:47:43.646Z,32.75
2023-03-29T15:50:10.986Z,32.92
2023-03-29T15:52:38.059Z,33.19
2023-03-29T15:55:05.326Z,33.54
2023-03-29T15:57:32.339Z,33.88
2023-03-29T16:00:00.437Z,34.22
2023-03-29T16:02:27.947Z,34.57
2023-03-29T16:04:55.995Z,34.52
2023-03-29T16:07:22.884Z,34.51
2023-03-29T16:09:50.163Z,34.93
2023-03-29T16:12:17.179Z,35.36
2023-03-29T16:14:44.503Z,35.56
2023-03-29T16:17:12.490Z,35.76
2023-03-29T16:19:39.353Z,35.84
2023-03-29T16:22:06.830Z,35.87
2023-03-29T16:24:35.010Z,36.17
2023-03-29T16:27:03.170Z,36.27
2023-03-29T16:29:30.111Z,36.42
2023-03-29T16:31:57.356Z,36.72
2023-03-29T16:34:25.077Z,36.99
2023-03-29T16:36:53.962Z,37.22
2023-03-29T16:39:21.861Z,37.17
2023-03-29T16:41:49.556Z,37.35
2023-03-29T16:44:20.687Z,37.54
2023-03-29T16:46:50.970Z,37.32
2023-03-29T16:49:17.739Z,37.35
2023-03-29T16:51:46.357Z,37.46
2023-03-29T16:54:14.161Z,37.57
2023-03-29T16:56:46.992Z,37.93
2023-03-29T16:59:14.672Z,38.02
2023-03-29T17:01:41.961Z,38.09
2023-03-29T17:04:11.138Z,38.46
2023-03-29T17:06:38.106Z,38.79
2023-03-29T17:09:05.519Z,39.05
2023-03-29T17:11:32.908Z,39.34
2023-03-29T17:13:59.737Z,39.76
2023-03-29T17:16:28.156Z,39.98
2023-03-29T17:18:55.916Z,40.14
2023-03-29T17:21:23.003Z,40.45
2023-03-29T17:23:49.947Z,40.53
2023-03-29T17:26:16.856Z,40.46
2023-03-29T17:28:43.698Z,40.49
2023-03-29T17:31:10.891Z,41.27
2023-03-29T17:33:38.396Z,41.06
2023-03-29T17:36:06.062Z,41.27
2023-03-29T17:38:34.425Z,41.15
2023-03-29T17:41:03.966Z,41.76
2023-03-29T17:43:32.117Z,42.46
2023-03-29T17:46:00.278Z,42.83
2023-03-29T17:48:50.077Z,43.03
2023-03-29T17:51:23.118Z,43.42
2023-03-29T17:53:52.351Z,44.50
2023-03-29T17:56:19.967Z,44.18
2023-03-29T17:58:48.603Z,45.00
2023-03-29T18:01:38.481Z,44.46
2023-03-29T18:04:07.106Z,44.33
2023-03-29T18:06:34.306Z,45.20
2023-03-29T18:09:03.810Z,45.54
2023-03-29T18:11:35.800Z,45.52
2023-03-29T18:14:25.043Z,45.64
2023-03-29T18:17:14.600Z,45.96
2023-03-29T18:20:08.601Z,46.19
2023-03-29T18:22:36.038Z,45.87
2023-03-29T18:25:23.337Z,46.54
2023-03-29T18:27:54.246Z,47.88
2023-03-29T18:30:23.498Z,47.54
2023-03-29T18:32:50.825Z,48.60
2023-03-29T18:35:19.280Z,48.67
2023-03-29T18:37:47.232Z,48.32
2023-03-29T18:40:21.992Z,49.78
2023-03-29T18:42:49.922Z,49.35
2023-03-29T18:45:17.622Z,49.40
2023-03-29T18:47:44.906Z,49.41
2023-03-29T18:50:12.759Z,50.02
2023-03-29T18:52:43.393Z,51.60
2023-03-29T18:55:12.176Z,51.98
2023-03-29T18:57:49.122Z,51.57
2023-03-29T19:00:17.118Z,51.82
2023-03-29T19:02:44.575Z,52.31
2023-03-29T19:05:14.519Z,51.64
2023-03-29T19:07:41.915Z,51.66
2023-03-29T19:10:10.017Z,51.72
2023-03-29T19:12:39.625Z,51.73
2023-03-29T19:15:08.303Z,51.95
2023-03-29T19:17:35.518Z,51.68
2023-03-29T19:20:06.096Z,51.57
2023-03-29T19:22:33.499Z,51.67
2023-03-29T19:25:01.295Z,52.00
2023-03-29T19:27:28.568Z,52.57
2023-03-29T19:29:55.801Z,52.87
2023-03-29T19:32:22.855Z,52.90
2023-03-29T19:34:50.510Z,53.41
2023-03-29T19:37:18.961Z,53.33
2023-03-29T19:39:56.591Z,54.92
2023-03-29T19:42:23.896Z,54.66
2023-03-29T19:44:52.393Z,53.85
2023-03-29T19:47:19.404Z,54.14
2023-03-29T19:49:46.469Z,55.00
2023-03-29T19:52:14.143Z,55.55
2023-03-29T19:54:41.923Z,55.55
2023-03-29T19:57:11.863Z,55.93
2023-03-29T19:59:40.519Z,56.11
2023-03-29T20:02:12.466Z,56.07
2023-03-29T20:04:40.398Z,55.96
2023-03-29T20:07:12.986Z,55.97
2023-03-29T20:09:44.623Z,56.25
2023-03-29T20:12:19.999Z,55.83
2023-03-29T20:14:47.081Z,55.82
2023-03-29T20:17:14.176Z,55.95
2023-03-29T20:19:45.008Z,55.95
2023-03-29T20:22:12.523Z,56.06
2023-03-29T20:24:40.212Z,56.13
2023-03-29T20:27:09.270Z,56.17
2023-03-29T20:29:38.668Z,57.12
2023-03-29T20:32:05.877Z,57.81
2023-03-29T20:34:38.689Z,57.83
2023-03-29T20:37:12.264Z,58.05
2023-03-29T20:39:53.836Z,58.72
2023-03-29T20:42:23.898Z,58.39
2023-03-29T20:44:53.233Z,58.12
2023-03-29T20:47:22.867Z,57.97
2023-03-29T20:49:59.924Z,58.88
2023-03-29T20:52:28.217Z,59.32
2023-03-29T20:54:57.605Z,58.71
2023-03-29T20:57:25.433Z,58.56
2023-03-29T20:59:53.190Z,58.81
2023-03-29T21:02:26.154Z,58.58
2023-03-29T21:04:53.523Z,59.03
2023-03-29T21:07:26.080Z,58.90
2023-03-29T21:09:53.672Z,60.40
2023-03-29T21:12:23.769Z,60.81
2023-03-29T21:14:51.663Z,60.25
2023-03-29T21:17:19.181Z,60.19
2023-03-29T21:19:46.258Z,59.94
2023-03-29T21:22:14.000Z,60.28
2023-03-29T21:24:41.714Z,60.40
2023-03-29T21:27:09.434Z,59.91
2023-03-29T21:29:38.297Z,60.51
2023-03-29T21:32:07.955Z,61.22
2023-03-29T21:34:35.273Z,61.85
2023-03-29T21:37:03.325Z,61.44
2023-03-29T21:39:31.405Z,61.09
2023-03-29T21:41:59.805Z,61.73
2023-03-29T21:44:28.186Z,61.64
2023-03-29T21:46:57.027Z,61.63
2023-03-29T21:49:24.145Z,61.62
2023-03-29T21:51:52.259Z,61.39
2023-03-29T21:54:21.079Z,61.65
2023-03-29T21:56:49.473Z,62.22
2023-03-29T21:59:17.452Z,62.35
2023-03-29T22:01:45.402Z,62.25
2023-03-29T22:04:22.789Z,62.90
2023-03-29T22:07:03.190Z,63.66
2023-03-29T22:09:34.336Z,63.52
2023-03-29T22:12:03.064Z,63.51
2023-03-29T22:14:51.041Z,63.04
2023-03-29T22:17:19.171Z,62.84
2023-03-29T22:19:49.103Z,62.64
2023-03-29T22:22:26.530Z,62.85
2023-03-29T22:25:03.565Z,63.38
2023-03-29T22:27:32.180Z,63.18
2023-03-29T22:30:01.133Z,63.06
2023-03-29T22:32:30.529Z,63.49
2023-03-29T22:35:10.588Z,64.04
2023-03-29T22:37:45.835Z,63.52
2023-03-29T22:40:13.547Z,63.07
2023-03-29T22:43:05.355Z,63.21
2023-03-29T22:45:36.465Z,63.01
2023-03-29T22:48:08.820Z,63.12
2023-03-29T22:50:59.166Z,63.13
2023-03-29T22:53:39.406Z,63.46
2023-03-29T22:56:08.608Z,63.59
2023-03-29T22:58:39.233Z,63.58
2023-03-29T23:01:08.284Z,63.99
2023-03-29T23:03:40.594Z,64.50
2023-03-29T23:06:24.977Z,64.64
2023-03-29T23:08:57.733Z,65.30
2023-03-29T23:11:44.131Z,66.07
2023-03-29T23:14:22.324Z,65.95
2023-03-29T23:16:49.893Z,66.71
2023-03-29T23:19:23.412Z,67.13
2023-03-29T23:21:52.392Z,66.40
2023-03-29T23:24:21.832Z,66.23
2023-03-29T23:26:50.297Z,66.27
2023-03-29T23:29:41.839Z,67.37
2023-03-29T23:32:33.326Z,67.38
2023-03-29T23:35:21.109Z,67.40
2023-03-29T23:38:11.242Z,67.54
2023-03-29T23:41:12.611Z,67.81
2023-03-29T23:44:03.029Z,67.89
2023-03-29T23:46:33.466Z,68.14
2023-03-29T23:49:20.184Z,68.64
2023-03-29T23:51:49.894Z,68.97
2023-03-29T23:54:17.305Z,68.70
2023-03-29T23:57:00.697Z,68.49
2023-03-29T23:59:52.984Z,68.72
